Terminal Aerodrome Forecast
Issued by NWS

Home | Current Version | Previous Version | Graphics & Text | Print | Product List | Glossary On
Versions: 1 2 3 4 5 6 7 8 9 10 11 12 13 14 15 16 17 18
000
FTUS43 KMPX 192300
TAFRNH
TAF
KRNH 192339Z 2000/2024 30007KT P6SM VCSH SCT025 BKN060
     FM200100 36003KT P6SM SCT070
     FM200600 VRB02KT 4SM BR SCT003 SCT250
     FM200800 00000KT 2SM BR SCT002
      TEMPO 2008/2012 1/2SM FG BKN001
     FM201400 09005KT P6SM SCT250
     FM201800 14008KT P6SM SCT050=

USA.gov is the U.S. government's official web portal to all federal, state and local government web resources and services.